Time;durP1;ratioP1;P1;durP2;ratioP2;P2;SDS_P1;SDS_P2;PMS_P1;PMS_P2;Temp;Humidity;BMP_temperature;BMP_pressure;BME280_temperature;BME280_humidity;BME280_pressure;Samples;Min_cycle;Max_cycle;Signal;HPM_P1;HPM_P2
2023/04/21 00:01:52;;;;;;;27.92;18.83;;;7.30;99.90;;;;;;5109921;28;20020;-47
2023/04/21 00:04:18;;;;;;;24.42;16.30;;;7.30;99.90;;;;;;5109995;28;20019;-46
2023/04/21 00:06:44;;;;;;;30.20;19.13;;;7.30;99.90;;;;;;5109597;28;20032;-45
2023/04/21 00:09:10;;;;;;;21.45;15.80;;;7.30;99.90;;;;;;5109564;28;20027;-46
2023/04/21 00:11:36;;;;;;;25.55;16.45;;;7.30;99.90;;;;;;5090758;28;20028;-44
2023/04/21 00:14:01;;;;;;;23.20;15.90;;;7.30;99.90;;;;;;5109151;28;20111;-45
2023/04/21 00:16:27;;;;;;;25.50;16.00;;;7.30;99.90;;;;;;5109164;28;20020;-45
2023/04/21 00:18:52;;;;;;;23.27;15.90;;;7.30;99.90;;;;;;5090499;28;20051;-45
2023/04/21 00:21:18;;;;;;;22.77;15.52;;;7.30;99.90;;;;;;5108638;28;20132;-45
2023/04/21 00:23:43;;;;;;;27.45;17.33;;;7.20;99.90;;;;;;5109005;28;20336;-45
2023/04/21 00:26:09;;;;;;;21.25;14.77;;;7.20;99.90;;;;;;5106139;28;20076;-45
2023/04/21 00:28:35;;;;;;;26.83;16.35;;;7.20;99.90;;;;;;5108707;28;20106;-45
2023/04/21 00:31:00;;;;;;;24.92;15.38;;;7.20;99.90;;;;;;5108221;28;20385;-48
2023/04/21 00:33:26;;;;;;;21.20;15.45;;;7.20;99.90;;;;;;5107157;28;20468;-47
2023/04/21 00:35:53;;;;;;;24.80;15.95;;;7.20;99.90;;;;;;5108961;28;20072;-45
2023/04/21 00:38:18;;;;;;;22.42;15.77;;;7.20;99.90;;;;;;5108417;28;20023;-45
2023/04/21 00:40:44;;;;;;;22.27;15.63;;;7.20;99.90;;;;;;5108390;28;20023;-46
2023/04/21 00:43:09;;;;;;;23.65;15.00;;;7.20;99.90;;;;;;5108578;28;20417;-45
2023/04/21 00:45:35;;;;;;;26.60;15.55;;;7.20;99.90;;;;;;5108599;28;20098;-47
2023/04/21 00:48:01;;;;;;;31.10;17.05;;;7.20;99.90;;;;;;5089851;28;20043;-45
2023/04/21 00:50:27;;;;;;;29.52;17.48;;;7.30;99.90;;;;;;5107455;28;20115;-45
2023/04/21 00:52:53;;;;;;;24.08;16.65;;;7.30;99.90;;;;;;5108298;28;20493;-45
2023/04/21 00:55:18;;;;;;;22.63;15.73;;;7.30;99.90;;;;;;5108430;28;20019;-45
2023/04/21 00:57:44;;;;;;;24.88;16.02;;;7.30;99.90;;;;;;5108353;28;20024;-45
2023/04/21 01:00:10;;;;;;;22.92;16.40;;;7.30;99.90;;;;;;5105629;28;20016;-45
2023/04/21 01:02:38;;;;;;;21.15;15.75;;;7.30;99.90;;;;;;5108403;28;20446;-46
2023/04/21 01:05:07;;;;;;;19.92;14.05;;;7.20;99.90;;;;;;5108231;28;20054;-46
2023/04/21 01:07:34;;;;;;;20.58;14.50;;;7.20;99.90;;;;;;5105720;28;20047;-46
2023/04/21 01:09:59;;;;;;;20.25;13.35;;;7.20;99.90;;;;;;5107942;28;20023;-46
2023/04/21 01:12:25;;;;;;;25.05;14.98;;;7.20;99.90;;;;;;5089107;28;20108;-45
2023/04/21 01:14:50;;;;;;;20.63;14.43;;;7.10;99.90;;;;;;5107899;28;20461;-46
2023/04/21 01:17:17;;;;;;;19.70;13.75;;;7.10;99.90;;;;;;5108203;28;20031;-45
2023/04/21 01:19:44;;;;;;;21.38;14.23;;;7.10;99.90;;;;;;5108114;28;20061;-45
2023/04/21 01:22:11;;;;;;;23.17;15.88;;;7.10;99.90;;;;;;5105095;28;20107;-48
2023/04/21 01:24:41;;;;;;;24.13;16.08;;;7.10;99.90;;;;;;5108265;28;20035;-46
2023/04/21 01:27:11;;;;;;;20.80;15.23;;;7.10;99.90;;;;;;5108301;28;20392;-45
2023/04/21 01:29:38;;;;;;;25.05;16.85;;;7.10;99.90;;;;;;5107948;28;20024;-45
2023/04/21 01:32:09;;;;;;;24.65;15.18;;;7.10;99.90;;;;;;5107756;28;20020;-47
2023/04/21 01:34:34;;;;;;;27.63;17.60;;;7.10;99.90;;;;;;5105917;28;20016;-46
2023/04/21 01:37:00;;;;;;;25.00;16.55;;;7.10;99.90;;;;;;5108042;28;20020;-46
2023/04/21 01:39:26;;;;;;;27.00;17.10;;;7.10;99.90;;;;;;5088851;28;20023;-47
2023/04/21 01:41:51;;;;;;;24.15;15.55;;;7.10;99.90;;;;;;5107786;28;20042;-46
2023/04/21 01:44:17;;;;;;;27.00;17.75;;;7.10;99.90;;;;;;5107797;28;20072;-46
2023/04/21 01:46:42;;;;;;;26.55;16.35;;;7.10;99.90;;;;;;5107731;28;20392;-46
2023/04/21 01:49:08;;;;;;;28.17;17.85;;;7.10;99.90;;;;;;5107152;28;20031;-46
2023/04/21 01:51:34;;;;;;;24.27;16.23;;;7.10;99.90;;;;;;5106952;28;20023;-45
2023/04/21 01:53:59;;;;;;;27.50;17.13;;;7.10;99.90;;;;;;5107307;28;20024;-46
2023/04/21 01:56:25;;;;;;;30.52;17.20;;;7.20;99.90;;;;;;5107436;28;20023;-46
2023/04/21 01:58:52;;;;;;;24.27;15.73;;;7.20;99.90;;;;;;5107338;28;20023;-46
2023/04/21 02:01:17;;;;;;;22.40;15.05;;;7.20;99.90;;;;;;5107088;28;20020;-46
2023/04/21 02:03:44;;;;;;;19.02;13.90;;;7.20;99.90;;;;;;5107673;28;20227;-46
2023/04/21 02:06:10;;;;;;;20.13;13.70;;;7.10;99.90;;;;;;5107554;28;20410;-45
2023/04/21 02:08:35;;;;;;;24.05;15.68;;;7.20;99.90;;;;;;5107473;28;20093;-46
2023/04/21 02:11:01;;;;;;;19.08;13.55;;;7.10;99.90;;;;;;5107676;28;20023;-46
2023/04/21 02:13:27;;;;;;;19.30;14.68;;;7.10;99.90;;;;;;5107649;28;20075;-46
2023/04/21 02:15:52;;;;;;;21.33;14.70;;;7.10;99.90;;;;;;5103673;28;20044;-48
2023/04/21 02:18:19;;;;;;;23.15;15.07;;;7.10;99.90;;;;;;5107902;28;20016;-46
2023/04/21 02:20:44;;;;;;;28.63;16.58;;;7.10;99.90;;;;;;5103897;28;20016;-45
2023/04/21 02:23:10;;;;;;;24.70;15.68;;;7.20;99.90;;;;;;5107125;28;20083;-46
2023/04/21 02:25:35;;;;;;;20.40;14.07;;;7.20;99.90;;;;;;5107389;28;20032;-46
2023/04/21 02:28:01;;;;;;;19.27;13.77;;;7.10;99.90;;;;;;5107164;28;20023;-46
2023/04/21 02:30:26;;;;;;;19.73;13.43;;;7.00;99.90;;;;;;5107074;28;20031;-46
2023/04/21 02:32:52;;;;;;;18.10;13.18;;;7.00;99.90;;;;;;5107357;28;20095;-46
2023/04/21 02:35:17;;;;;;;18.90;13.32;;;7.00;99.90;;;;;;5107125;28;20030;-46
2023/04/21 02:37:43;;;;;;;17.30;12.98;;;7.00;99.90;;;;;;5106388;28;20023;-46
2023/04/21 02:40:09;;;;;;;20.50;13.50;;;6.90;99.90;;;;;;5106041;28;20495;-45
2023/04/21 02:42:35;;;;;;;18.98;12.48;;;7.00;99.90;;;;;;5106938;28;20008;-46
2023/04/21 02:45:00;;;;;;;18.58;12.98;;;6.90;99.90;;;;;;5106607;28;20026;-46
2023/04/21 02:47:26;;;;;;;21.00;13.60;;;6.90;99.90;;;;;;5106926;28;20110;-46
2023/04/21 02:49:51;;;;;;;19.58;13.48;;;6.90;99.90;;;;;;5088434;28;20023;-46
2023/04/21 02:52:17;;;;;;;25.08;15.00;;;6.80;99.90;;;;;;5087971;28;20028;-46
2023/04/21 02:54:42;;;;;;;25.95;14.05;;;6.80;99.90;;;;;;5106766;28;20027;-46
2023/04/21 02:57:08;;;;;;;27.23;14.35;;;6.80;99.90;;;;;;5106893;28;20028;-46
2023/04/21 02:59:33;;;;;;;29.85;15.00;;;6.80;99.90;;;;;;5106181;28;20047;-45
2023/04/21 03:01:59;;;;;;;23.45;14.43;;;6.90;99.90;;;;;;5107032;28;20024;-45
2023/04/21 03:04:24;;;;;;;20.25;13.98;;;6.90;99.90;;;;;;5088197;28;20507;-45
2023/04/21 03:06:51;;;;;;;25.05;16.88;;;6.90;99.90;;;;;;5106807;28;20054;-46
2023/04/21 03:09:17;;;;;;;25.38;13.43;;;6.90;99.90;;;;;;5106349;28;20492;-46
2023/04/21 03:11:42;;;;;;;20.75;13.88;;;6.90;99.90;;;;;;5106428;28;20023;-45
2023/04/21 03:14:08;;;;;;;22.00;14.55;;;6.80;99.90;;;;;;5110131;28;20030;-46
2023/04/21 03:16:33;;;;;;;18.67;13.77;;;6.90;99.90;;;;;;5110530;28;20034;-46
2023/04/21 03:18:59;;;;;;;21.48;13.98;;;6.90;99.90;;;;;;5110251;28;20024;-46
2023/04/21 03:21:24;;;;;;;20.95;13.93;;;6.80;99.90;;;;;;5109836;28;20028;-46
2023/04/21 03:23:52;;;;;;;19.58;14.00;;;6.80;99.90;;;;;;5091752;28;20027;-45
2023/04/21 03:26:17;;;;;;;18.92;12.77;;;6.80;99.90;;;;;;5110263;28;20024;-46
2023/04/21 03:28:43;;;;;;;21.13;13.77;;;6.80;99.90;;;;;;5109755;28;20173;-45
2023/04/21 03:31:08;;;;;;;19.02;12.98;;;6.80;99.90;;;;;;5109573;28;20054;-46
2023/04/21 03:33:34;;;;;;;17.83;12.07;;;6.70;99.90;;;;;;5109535;28;20023;-46
2023/04/21 03:35:59;;;;;;;20.52;12.32;;;6.70;99.90;;;;;;5091105;28;20024;-45
2023/04/21 03:38:27;;;;;;;17.73;12.77;;;6.70;99.90;;;;;;5109836;28;20397;-47
2023/04/21 03:40:53;;;;;;;20.98;11.48;;;6.70;99.90;;;;;;5107088;28;20208;-46
2023/04/21 03:43:18;;;;;;;19.33;12.05;;;6.60;99.90;;;;;;5109939;28;20028;-46
2023/04/21 03:45:44;;;;;;;20.42;13.30;;;6.60;99.90;;;;;;5109627;28;20031;-45
2023/04/21 03:48:09;;;;;;;16.88;12.77;;;6.60;99.90;;;;;;5109384;28;20031;-46
2023/04/21 03:50:35;;;;;;;17.08;11.38;;;6.50;99.90;;;;;;5109338;28;20058;-45
2023/04/21 03:53:00;;;;;;;18.33;11.68;;;6.50;99.90;;;;;;5109501;28;20028;-46
2023/04/21 03:55:26;;;;;;;20.48;12.50;;;6.50;99.90;;;;;;5109639;28;20032;-47
2023/04/21 03:57:51;;;;;;;17.88;12.15;;;6.50;99.90;;;;;;5109173;28;20471;-46
2023/04/21 04:00:17;;;;;;;27.10;15.50;;;6.50;99.90;;;;;;5109126;28;20024;-45
2023/04/21 04:02:42;;;;;;;19.48;14.68;;;6.50;99.90;;;;;;5109449;28;20480;-45
2023/04/21 04:05:08;;;;;;;19.83;13.93;;;6.50;99.90;;;;;;5109624;28;20046;-45
2023/04/21 04:07:34;;;;;;;30.98;15.20;;;6.50;99.90;;;;;;5109157;28;20118;-45
2023/04/21 04:09:59;;;;;;;18.85;13.27;;;6.50;99.90;;;;;;5109088;28;20078;-46
2023/04/21 04:12:25;;;;;;;24.65;15.07;;;6.50;99.90;;;;;;5109399;28;20036;-46
2023/04/21 04:14:51;;;;;;;20.13;14.25;;;6.50;99.90;;;;;;5109434;28;20169;-45
2023/04/21 04:17:16;;;;;;;24.02;14.50;;;6.50;99.90;;;;;;5109545;28;20118;-45
2023/04/21 04:19:42;;;;;;;22.33;14.55;;;6.60;99.90;;;;;;5109325;28;20035;-45
2023/04/21 04:22:07;;;;;;;23.17;15.05;;;6.60;99.90;;;;;;5109030;28;20104;-45
2023/04/21 04:24:34;;;;;;;22.45;15.23;;;6.60;99.90;;;;;;5109031;28;20019;-45
2023/04/21 04:27:01;;;;;;;29.95;16.35;;;6.70;99.90;;;;;;5090455;28;20020;-45
2023/04/21 04:29:27;;;;;;;25.38;15.75;;;6.70;99.90;;;;;;5108599;28;20104;-46
2023/04/21 04:31:53;;;;;;;21.17;14.32;;;6.70;99.90;;;;;;5108631;28;20012;-46
2023/04/21 04:34:19;;;;;;;23.17;15.18;;;6.70;99.90;;;;;;5108789;28;20031;-47
2023/04/21 04:36:46;;;;;;;25.65;16.55;;;6.70;99.90;;;;;;5090221;28;20039;-46
2023/04/21 04:39:12;;;;;;;24.27;16.65;;;6.70;99.90;;;;;;5108188;28;20069;-46
2023/04/21 04:41:38;;;;;;;31.00;15.88;;;6.70;99.90;;;;;;5108295;28;20488;-47
2023/04/21 04:44:04;;;;;;;24.27;15.43;;;6.80;99.90;;;;;;5108425;28;20112;-45
2023/04/21 04:46:31;;;;;;;24.08;14.85;;;6.80;99.90;;;;;;5108636;28;20015;-45
2023/04/21 04:48:56;;;;;;;26.98;15.18;;;6.80;99.90;;;;;;5108084;28;20024;-45
2023/04/21 04:51:22;;;;;;;21.83;14.95;;;6.90;99.90;;;;;;5107925;28;20125;-45
2023/04/21 04:53:48;;;;;;;23.20;15.70;;;6.80;99.90;;;;;;5107827;28;20156;-45
2023/04/21 04:56:13;;;;;;;21.98;14.25;;;6.90;99.90;;;;;;5089893;28;20373;-45
2023/04/21 04:58:40;;;;;;;21.02;14.07;;;6.90;99.90;;;;;;5108019;28;20111;-46
2023/04/21 05:01:13;;;;;;;22.25;15.07;;;6.90;99.90;;;;;;5107836;28;20579;-45
2023/04/21 05:03:39;;;;;;;32.63;17.23;;;6.90;99.90;;;;;;5108529;28;20020;-48
2023/04/21 05:06:05;;;;;;;21.70;15.50;;;7.00;99.90;;;;;;5108392;28;20427;-46
2023/04/21 05:08:31;;;;;;;25.08;15.48;;;7.00;99.90;;;;;;5107999;28;20031;-46
2023/04/21 05:10:56;;;;;;;26.83;16.05;;;7.00;99.90;;;;;;5108159;28;20023;-46
2023/04/21 05:13:22;;;;;;;31.30;15.70;;;7.10;99.90;;;;;;5090087;28;20019;-45
2023/04/21 05:15:47;;;;;;;21.50;15.30;;;7.10;99.90;;;;;;5108221;28;20421;-45
2023/04/21 05:18:13;;;;;;;25.52;15.63;;;7.20;99.90;;;;;;5107989;28;20027;-45
2023/04/21 05:20:41;;;;;;;27.13;16.08;;;7.30;99.90;;;;;;5107754;28;20441;-46
2023/04/21 05:23:07;;;;;;;24.70;16.45;;;7.40;99.90;;;;;;5087267;28;20027;-46
2023/04/21 05:25:33;;;;;;;27.95;16.42;;;7.40;99.90;;;;;;5108197;28;20030;-46
2023/04/21 05:27:58;;;;;;;23.63;15.13;;;7.40;99.90;;;;;;5107804;28;20020;-46
2023/04/21 05:30:24;;;;;;;26.67;15.77;;;7.50;99.90;;;;;;5107659;28;20028;-46
2023/04/21 05:32:49;;;;;;;32.08;17.00;;;7.50;99.90;;;;;;5089302;28;20076;-46
2023/04/21 05:35:15;;;;;;;24.08;15.32;;;7.60;99.90;;;;;;5106965;28;20460;-46
2023/04/21 05:37:40;;;;;;;23.75;15.10;;;7.60;99.90;;;;;;5107267;28;20020;-46
2023/04/21 05:40:06;;;;;;;24.00;16.15;;;7.70;99.90;;;;;;5106548;28;20030;-46
2023/04/21 05:42:32;;;;;;;26.60;15.63;;;7.80;99.90;;;;;;5107873;28;20381;-46
2023/04/21 05:44:57;;;;;;;26.85;16.00;;;7.80;99.90;;;;;;5089314;28;20035;-45
2023/04/21 05:47:23;;;;;;;30.65;15.00;;;7.80;99.90;;;;;;5107658;28;20365;-46
2023/04/21 05:49:53;;;;;;;22.42;14.93;;;7.90;99.90;;;;;;5085427;28;20035;-46
2023/04/21 05:52:20;;;;;;;25.45;15.38;;;7.90;99.90;;;;;;5069145;28;20024;-46
2023/04/21 05:54:46;;;;;;;25.80;15.38;;;8.00;99.90;;;;;;5087518;28;20481;-46
2023/04/21 05:57:12;;;;;;;24.80;15.80;;;8.10;99.90;;;;;;5069239;28;20031;-46
2023/04/21 05:59:37;;;;;;;21.83;15.75;;;8.10;99.90;;;;;;5087096;28;20055;-46
2023/04/21 06:02:03;;;;;;;24.52;16.20;;;8.20;99.90;;;;;;5087337;28;20028;-45
2023/04/21 06:04:28;;;;;;;25.08;15.30;;;8.20;99.90;;;;;;5107784;28;20699;-46
2023/04/21 06:06:54;;;;;;;27.15;15.85;;;8.30;99.90;;;;;;5107650;28;20362;-45
2023/04/21 06:09:20;;;;;;;23.45;15.05;;;8.40;99.90;;;;;;5107270;28;20028;-46
2023/04/21 06:11:45;;;;;;;27.92;15.70;;;8.50;99.90;;;;;;5106832;28;20054;-48
2023/04/21 06:14:10;;;;;;;22.95;14.65;;;8.50;99.90;;;;;;5107002;28;20027;-45
2023/04/21 06:16:36;;;;;;;26.95;15.35;;;8.60;99.90;;;;;;5106923;28;20390;-45
2023/04/21 06:19:02;;;;;;;22.85;14.23;;;8.70;99.90;;;;;;5106894;28;20427;-46
2023/04/21 06:21:27;;;;;;;25.52;15.43;;;8.80;99.90;;;;;;5106866;28;20042;-48
2023/04/21 06:23:53;;;;;;;22.98;14.35;;;8.90;99.90;;;;;;5106626;28;20066;-46
2023/04/21 06:26:18;;;;;;;29.52;15.07;;;9.00;99.90;;;;;;5105935;28;20042;-46
2023/04/21 06:28:43;;;;;;;22.27;14.73;;;9.00;99.90;;;;;;5106246;28;20540;-45
2023/04/21 06:31:14;;;;;;;25.15;14.43;;;9.10;99.90;;;;;;5106343;28;20524;-46
2023/04/21 06:33:39;;;;;;;24.95;14.77;;;9.20;99.90;;;;;;5106591;28;20034;-46
2023/04/21 06:36:05;;;;;;;26.67;15.35;;;9.30;99.90;;;;;;5106860;28;20114;-46
2023/04/21 06:38:31;;;;;;;31.05;16.05;;;9.40;99.90;;;;;;5106344;28;20026;-46
2023/04/21 06:40:56;;;;;;;22.10;14.25;;;9.50;99.90;;;;;;5106754;28;20028;-47
2023/04/21 06:43:22;;;;;;;26.80;14.35;;;9.70;99.90;;;;;;5106867;28;20032;-46
2023/04/21 06:45:47;;;;;;;21.45;13.77;;;9.70;99.90;;;;;;5107418;28;20028;-47
2023/04/21 06:48:13;;;;;;;20.67;13.60;;;9.80;99.90;;;;;;5109721;28;20488;-46
2023/04/21 06:50:38;;;;;;;22.77;14.45;;;9.90;99.90;;;;;;5110631;28;20039;-48
2023/04/21 06:53:04;;;;;;;22.00;14.63;;;10.00;99.90;;;;;;5110899;28;20066;-46
2023/04/21 06:55:29;;;;;;;21.52;13.48;;;10.10;99.90;;;;;;5110857;28;20020;-47
2023/04/21 06:57:55;;;;;;;23.00;13.88;;;10.10;99.90;;;;;;5110785;28;20043;-45
2023/04/21 07:00:21;;;;;;;20.23;14.10;;;10.30;99.90;;;;;;5108329;27;20115;-46
2023/04/21 07:02:47;;;;;;;20.55;14.23;;;10.40;99.90;;;;;;5107882;28;20481;-46
2023/04/21 07:05:12;;;;;;;28.58;15.35;;;10.50;99.90;;;;;;5110055;28;20032;-45
2023/04/21 07:07:38;;;;;;;26.23;14.43;;;10.60;99.90;;;;;;5110144;28;20023;-46
2023/04/21 07:10:04;;;;;;;21.33;14.02;;;10.70;99.90;;;;;;5107642;27;20650;-46
2023/04/21 07:12:29;;;;;;;31.90;14.07;;;10.80;99.90;;;;;;5110313;28;20548;-46
2023/04/21 07:14:55;;;;;;;23.60;14.98;;;10.90;99.90;;;;;;5110646;28;20031;-45
2023/04/21 07:17:20;;;;;;;27.90;14.77;;;11.00;99.90;;;;;;5110494;28;20027;-49
2023/04/21 07:19:46;;;;;;;19.60;13.02;;;11.20;99.90;;;;;;5110439;28;20106;-47
2023/04/21 07:22:11;;;;;;;23.48;13.25;;;11.40;99.90;;;;;;5110197;28;20028;-48
2023/04/21 07:24:37;;;;;;;21.65;13.02;;;11.40;99.90;;;;;;5110299;28;20032;-46
2023/04/21 07:27:02;;;;;;;25.95;13.30;;;11.50;99.90;;;;;;5110208;28;20034;-46
2023/04/21 07:29:28;;;;;;;24.88;13.23;;;11.60;99.90;;;;;;5109985;28;20049;-46
2023/04/21 07:31:55;;;;;;;20.80;12.65;;;11.80;99.90;;;;;;5109873;28;20504;-47
2023/04/21 07:34:20;;;;;;;18.40;12.48;;;11.90;99.90;;;;;;5109939;28;20035;-46
2023/04/21 07:36:46;;;;;;;17.90;13.00;;;12.00;99.90;;;;;;5109916;28;20067;-46
2023/04/21 07:39:11;;;;;;;19.85;12.43;;;12.10;99.90;;;;;;5109134;28;20041;-47
2023/04/21 07:41:37;;;;;;;20.15;13.50;;;12.20;99.90;;;;;;5109773;28;20027;-47
2023/04/21 07:44:03;;;;;;;24.83;14.70;;;12.40;99.90;;;;;;5090901;28;20035;-46
2023/04/21 07:46:31;;;;;;;28.88;14.00;;;12.70;99.90;;;;;;5109439;28;20074;-47
2023/04/21 07:48:58;;;;;;;18.88;11.82;;;12.90;99.90;;;;;;5090903;28;20020;-48
2023/04/21 07:51:24;;;;;;;21.02;11.68;;;13.00;99.90;;;;;;5109133;28;20019;-46
2023/04/21 07:53:49;;;;;;;21.38;11.75;;;13.30;99.90;;;;;;5091042;28;20030;-46
2023/04/21 07:56:15;;;;;;;21.15;12.98;;;13.60;99.90;;;;;;5108448;28;20230;-47
2023/04/21 07:58:41;;;;;;;19.27;10.90;;;13.90;99.90;;;;;;5107554;28;20111;-50
2023/04/21 08:01:06;;;;;;;16.77;11.55;;;14.50;99.90;;;;;;5089501;28;20330;-47
2023/04/21 08:03:32;;;;;;;18.70;10.88;;;15.60;99.90;;;;;;5089869;28;20036;-48
2023/04/21 08:05:57;;;;;;;13.95;9.52;;;17.20;99.90;;;;;;5108177;28;20034;-47
2023/04/21 08:08:23;;;;;;;14.07;10.15;;;18.60;99.10;;;;;;5108422;28;20027;-47
2023/04/21 08:10:48;;;;;;;14.88;8.98;;;20.10;94.90;;;;;;5108198;28;20035;-47
2023/04/21 08:13:14;;;;;;;16.45;9.40;;;21.10;91.40;;;;;;5091470;28;20031;-47
2023/04/21 08:15:39;;;;;;;15.38;8.73;;;22.30;87.80;;;;;;5109385;28;20523;-49
2023/04/21 08:18:05;;;;;;;13.63;9.38;;;23.80;80.40;;;;;;5108666;28;20040;-45
2023/04/21 08:20:31;;;;;;;14.80;8.88;;;24.00;75.20;;;;;;5108661;28;20173;-47
2023/04/21 08:22:56;;;;;;;10.68;8.15;;;24.30;73.10;;;;;;5109357;28;20538;-49
2023/04/21 08:25:22;;;;;;;15.75;8.80;;;25.30;69.30;;;;;;5109492;28;20028;-49
2023/04/21 08:27:48;;;;;;;14.10;8.20;;;25.80;68.30;;;;;;5109079;28;20715;-47
2023/04/21 08:30:13;;;;;;;17.23;8.18;;;26.70;61.40;;;;;;5106807;28;20027;-48
2023/04/21 08:32:39;;;;;;;15.27;8.73;;;26.50;62.40;;;;;;5108010;28;20027;-48
2023/04/21 08:35:05;;;;;;;11.02;7.53;;;27.60;61.50;;;;;;5109047;28;20556;-48
2023/04/21 08:37:31;;;;;;;11.00;7.47;;;27.70;59.80;;;;;;5109050;28;20028;-48
2023/04/21 08:39:56;;;;;;;15.13;7.95;;;28.60;56.90;;;;;;5108956;28;20031;-47
2023/04/21 08:42:22;;;;;;;12.63;8.18;;;28.60;56.20;;;;;;5109302;28;20286;-48
2023/04/21 08:44:47;;;;;;;13.25;7.85;;;28.80;56.00;;;;;;5090615;28;20304;-49
2023/04/21 08:47:14;;;;;;;14.38;8.60;;;29.10;55.30;;;;;;5090759;28;20034;-49
2023/04/21 08:49:43;;;;;;;17.98;11.60;;;29.50;54.30;;;;;;5108939;28;20072;-51
2023/04/21 08:52:12;;;;;;;16.58;8.85;;;29.80;54.20;;;;;;5108319;28;20027;-48
2023/04/21 08:54:38;;;;;;;12.88;7.30;;;29.70;52.90;;;;;;5108693;28;20032;-51
2023/04/21 08:57:03;;;;;;;10.93;7.35;;;29.40;53.70;;;;;;5108566;28;20358;-45
2023/04/21 08:59:29;;;;;;;11.75;7.45;;;30.10;52.70;;;;;;5108653;28;20030;-45
2023/04/21 09:02:08;;;;;;;10.70;7.68;;;30.80;53.00;;;;;;5107878;28;20748;-45
2023/04/21 09:04:36;;;;;;;9.15;7.45;;;31.10;51.00;;;;;;5108585;28;20075;-45
2023/04/21 09:07:02;;;;;;;10.45;7.20;;;31.80;50.10;;;;;;5107993;28;20035;-47
2023/04/21 09:09:28;;;;;;;10.23;7.07;;;31.20;48.90;;;;;;5089226;28;20034;-50
2023/04/21 09:11:58;;;;;;;13.05;7.03;;;31.00;50.00;;;;;;5089474;28;20584;-46
2023/04/21 09:14:33;;;;;;;9.70;7.00;;;31.80;47.50;;;;;;5108099;27;20441;-47
2023/04/21 09:17:03;;;;;;;12.98;6.80;;;32.50;47.30;;;;;;5108896;27;20358;-46
2023/04/21 09:19:29;;;;;;;;;;;33.00;45.90;;;;;;5108168;28;20026;-47
2023/04/21 09:21:55;;;;;;;13.60;6.50;;;33.50;45.90;;;;;;5107554;28;19982;-47
2023/04/21 09:24:20;;;;;;;13.93;7.43;;;33.40;45.70;;;;;;5089080;28;20039;-48
2023/04/21 09:26:53;;;;;;;13.85;7.10;;;33.30;45.70;;;;;;5107297;28;20035;-48
2023/04/21 09:29:25;;;;;;;9.07;6.53;;;33.60;45.00;;;;;;5105067;28;20085;-48
2023/04/21 09:31:51;;;;;;;12.80;7.38;;;33.40;45.50;;;;;;5107284;28;20504;-48
2023/04/21 09:34:25;;;;;;;10.55;7.43;;;33.10;45.40;;;;;;5107842;28;20050;-47
2023/04/21 09:37:03;;;;;;;11.48;8.80;;;33.20;45.50;;;;;;5107871;28;20023;-48
2023/04/21 09:39:30;;;;;;;15.77;9.97;;;33.40;44.40;;;;;;5108128;28;20096;-47
2023/04/21 09:41:56;;;;;;;8.95;6.78;;;33.20;45.20;;;;;;5104640;28;20300;-48
2023/04/21 09:44:22;;;;;;;8.60;5.90;;;33.50;42.10;;;;;;5108827;27;20027;-49
2023/04/21 09:46:49;;;;;;;8.95;6.63;;;33.80;43.80;;;;;;5110098;27;20023;-48
2023/04/21 09:49:17;;;;;;;9.35;6.22;;;33.30;43.60;;;;;;5107149;28;20450;-48
2023/04/21 09:51:42;;;;;;;16.00;6.85;;;34.00;41.70;;;;;;5087514;28;20092;-49
2023/04/21 09:54:35;;;;;;;7.35;5.93;;;34.00;42.20;;;;;;5107045;28;20210;-48
2023/04/21 09:57:02;;;;;;;10.45;6.45;;;34.40;40.90;;;;;;5086089;28;20031;-48
2023/04/21 09:59:35;;;;;;;8.93;5.88;;;34.30;40.50;;;;;;5107072;28;20012;-49
2023/04/21 10:02:04;;;;;;;7.13;6.13;;;33.60;42.70;;;;;;5104641;28;20018;-47
2023/04/21 10:04:32;;;;;;;8.38;5.93;;;34.00;43.10;;;;;;5106933;28;20519;-46
2023/04/21 10:06:59;;;;;;;8.38;5.95;;;34.20;42.00;;;;;;5104597;28;20564;-49
2023/04/21 10:09:30;;;;;;;7.93;5.75;;;33.50;41.20;;;;;;5106721;28;20036;-48
2023/04/21 10:11:56;;;;;;;8.20;5.47;;;33.60;41.80;;;;;;5104219;28;20268;-47
2023/04/21 10:14:24;;;;;;;9.02;6.00;;;34.50;40.70;;;;;;5108406;28;20380;-47
2023/04/21 10:17:02;;;;;;;11.88;5.95;;;34.80;41.00;;;;;;5109061;28;20051;-46
2023/04/21 10:19:27;;;;;;;12.45;6.75;;;34.80;41.50;;;;;;5087499;28;20490;-46
2023/04/21 10:21:56;;;;;;;10.15;5.95;;;35.30;40.80;;;;;;5106528;28;20016;-48
2023/04/21 10:24:22;;;;;;;9.07;5.90;;;34.60;40.00;;;;;;5107074;28;20039;-49
2023/04/21 10:26:50;;;;;;;6.60;5.82;;;34.50;38.60;;;;;;5106775;28;20088;-47
2023/04/21 10:29:26;;;;;;;10.07;5.50;;;34.10;40.10;;;;;;5088124;28;20058;-46
2023/04/21 10:31:53;;;;;;;7.65;6.05;;;34.50;39.70;;;;;;5106710;28;20486;-46
2023/04/21 10:34:21;;;;;;;6.65;5.07;;;34.90;39.40;;;;;;5107143;28;20027;-47
2023/04/21 10:36:56;;;;;;;12.07;5.40;;;35.20;39.80;;;;;;5107191;28;20058;-47
2023/04/21 10:39:27;;;;;;;7.50;5.65;;;35.00;39.50;;;;;;5104733;28;20166;-47
2023/04/21 10:42:18;;;;;;;7.75;5.45;;;35.00;37.90;;;;;;5107032;28;20039;-49
2023/04/21 10:44:57;;;;;;;6.97;5.53;;;35.00;38.20;;;;;;5107748;28;20265;-46
2023/04/21 10:47:36;;;;;;;8.70;5.15;;;34.90;37.20;;;;;;5105409;28;20024;-47
2023/04/21 10:50:11;;;;;;;;;;;34.90;37.20;;;;;;5105129;28;20076;-46
2023/04/21 10:52:36;;;;;;;10.98;5.70;;;34.70;36.90;;;;;;5085500;28;19961;-46
2023/04/21 10:55:11;;;;;;;9.38;5.10;;;34.80;38.20;;;;;;5106559;28;20027;-47
2023/04/21 10:57:39;;;;;;;7.15;5.00;;;35.20;37.00;;;;;;5103672;28;20593;-46
2023/04/21 11:00:05;;;;;;;11.05;5.00;;;35.40;35.80;;;;;;5106296;28;20035;-46
2023/04/21 11:02:32;;;;;;;9.02;4.88;;;34.90;36.90;;;;;;5106389;28;20574;-48
2023/04/21 11:04:59;;;;;;;9.70;5.30;;;34.40;37.10;;;;;;5106173;28;20503;-45
2023/04/21 11:07:25;;;;;;;8.93;5.05;;;34.40;36.70;;;;;;5106193;28;20270;-46
2023/04/21 11:09:57;;;;;;;7.20;5.00;;;34.40;37.80;;;;;;5106056;28;20110;-47
2023/04/21 11:12:28;;;;;;;7.35;6.32;;;35.10;36.90;;;;;;5103530;28;20051;-47
2023/04/21 11:14:53;;;;;;;13.93;7.55;;;34.70;35.90;;;;;;5089895;28;20035;-45
2023/04/21 11:17:20;;;;;;;7.40;4.30;;;34.20;35.20;;;;;;5079381;28;20047;-45
2023/04/21 11:19:51;;;;;;;7.65;4.65;;;33.00;36.30;;;;;;5117531;28;20125;-46
2023/04/21 11:22:17;;;;;;;9.15;5.43;;;33.50;35.60;;;;;;5102847;28;20035;-46
2023/04/21 11:24:45;;;;;;;10.02;5.20;;;32.90;35.80;;;;;;5106019;28;20032;-46
2023/04/21 11:27:11;;;;;;;8.95;5.07;;;32.80;36.10;;;;;;5105860;28;20032;-46
2023/04/21 11:29:37;;;;;;;6.43;4.70;;;33.10;36.30;;;;;;5102974;28;20020;-45
2023/04/21 11:32:05;;;;;;;9.07;4.65;;;33.00;35.90;;;;;;5105754;28;20027;-46
2023/04/21 11:34:31;;;;;;;7.90;4.88;;;33.40;36.80;;;;;;5108640;28;20424;-46
2023/04/21 11:36:56;;;;;;;9.82;5.13;;;32.60;36.40;;;;;;5091121;28;20028;-47
2023/04/21 11:39:22;;;;;;;9.05;5.10;;;32.70;36.50;;;;;;5109376;28;20498;-46
2023/04/21 11:41:49;;;;;;;12.23;5.15;;;32.60;36.10;;;;;;5090909;28;20480;-47
2023/04/21 11:44:35;;;;;;;7.00;5.35;;;32.40;36.70;;;;;;5109661;27;20027;-46
2023/04/21 11:47:16;;;;;;;10.18;5.70;;;32.40;36.60;;;;;;5107826;27;20477;-49
2023/04/21 11:49:45;;;;;;;11.30;4.97;;;32.30;37.30;;;;;;5107010;28;20041;-46
2023/04/21 11:52:11;;;;;;;8.35;5.05;;;32.50;37.80;;;;;;5109144;28;20028;-48
2023/04/21 11:54:38;;;;;;;6.82;5.28;;;31.60;36.80;;;;;;5106427;28;20565;-46
2023/04/21 11:57:05;;;;;;;10.90;5.93;;;30.40;37.00;;;;;;5109352;28;20019;-47
2023/04/21 11:59:31;;;;;;;10.05;5.45;;;30.50;38.00;;;;;;5090777;28;20381;-46
2023/04/21 12:01:57;;;;;;;7.50;5.55;;;29.50;37.90;;;;;;5108752;28;20032;-46
2023/04/21 12:04:24;;;;;;;13.85;5.65;;;29.60;38.00;;;;;;5109297;28;20032;-49
2023/04/21 12:06:59;;;;;;;9.57;6.55;;;29.20;39.00;;;;;;5109204;28;20028;-47
2023/04/21 12:09:26;;;;;;;11.15;6.57;;;28.80;40.90;;;;;;5107215;28;20062;-49
2023/04/21 12:11:54;;;;;;;12.05;6.85;;;28.10;40.90;;;;;;5109071;28;20024;-48
2023/04/21 12:14:21;;;;;;;11.48;7.25;;;28.10;41.10;;;;;;5107592;27;20023;-47
2023/04/21 12:16:57;;;;;;;11.52;6.15;;;27.80;41.20;;;;;;5115979;27;20095;-46
2023/04/21 12:19:39;;;;;;;13.30;6.53;;;27.40;42.10;;;;;;5103869;28;20489;-46
2023/04/21 12:22:09;;;;;;;11.07;6.60;;;27.40;42.00;;;;;;5108400;28;20508;-47
2023/04/21 12:24:36;;;;;;;;;;;27.10;43.20;;;;;;5108746;28;20441;-46
2023/04/21 12:27:02;;;;;;;11.23;6.00;;;26.80;43.50;;;;;;5109015;28;19904;-46
2023/04/21 12:29:27;;;;;;;12.70;6.45;;;26.80;44.20;;;;;;5108912;28;20032;-46
2023/04/21 12:31:53;;;;;;;8.60;6.40;;;26.60;43.80;;;;;;5108244;28;20504;-46
2023/04/21 12:34:19;;;;;;;13.50;6.10;;;26.60;43.90;;;;;;5090093;28;20024;-46
2023/04/21 12:36:44;;;;;;;11.63;6.90;;;26.80;44.50;;;;;;5108403;28;20027;-45